createdAt,value
2023-05-14T00:02:21.520Z,956.56
2023-05-14T00:04:47.877Z,956.62
2023-05-14T00:07:14.280Z,956.56
2023-05-14T00:09:40.718Z,956.53
2023-05-14T00:12:07.116Z,956.48
2023-05-14T00:14:33.529Z,956.51
2023-05-14T00:16:59.931Z,956.42
2023-05-14T00:19:26.310Z,956.34
2023-05-14T00:21:52.680Z,956.42
2023-05-14T00:24:19.102Z,956.41
2023-05-14T00:26:45.515Z,956.44
2023-05-14T00:29:11.870Z,956.36
2023-05-14T00:31:38.348Z,956.25
2023-05-14T00:34:04.667Z,956.32
2023-05-14T00:36:31.056Z,956.30
2023-05-14T00:38:57.490Z,956.24
2023-05-14T00:41:23.896Z,956.23
2023-05-14T00:43:50.306Z,956.34
2023-05-14T00:46:16.724Z,956.22
2023-05-14T00:48:43.086Z,956.24
2023-05-14T00:51:09.482Z,956.23
2023-05-14T00:53:35.854Z,956.22
2023-05-14T00:56:02.220Z,956.14
2023-05-14T00:58:28.592Z,956.21
2023-05-14T01:00:55.073Z,956.14
2023-05-14T01:03:21.513Z,956.07
2023-05-14T01:05:47.808Z,956.13
2023-05-14T01:08:14.229Z,956.10
2023-05-14T01:10:40.655Z,956.11
2023-05-14T01:13:07.030Z,956.17
2023-05-14T01:15:33.384Z,956.06
2023-05-14T01:17:59.840Z,956.00
2023-05-14T01:20:26.427Z,955.96
2023-05-14T01:22:52.645Z,956.03
2023-05-14T01:25:19.004Z,956.18
2023-05-14T01:27:45.419Z,956.32
2023-05-14T01:30:11.788Z,956.42
2023-05-14T01:32:38.234Z,956.30
2023-05-14T01:35:04.564Z,956.32
2023-05-14T01:37:30.984Z,956.39
2023-05-14T01:39:57.343Z,956.30
2023-05-14T01:42:23.760Z,956.26
2023-05-14T01:44:50.235Z,956.34
2023-05-14T01:47:16.612Z,956.33
2023-05-14T01:49:42.968Z,956.32
2023-05-14T01:52:09.363Z,956.23
2023-05-14T01:54:35.772Z,956.27
2023-05-14T01:57:02.193Z,956.30
2023-05-14T01:59:28.584Z,956.33
2023-05-14T02:01:55.025Z,956.38
2023-05-14T02:04:21.453Z,956.37
2023-05-14T02:06:47.804Z,956.35
2023-05-14T02:09:14.220Z,956.35
2023-05-14T02:11:40.576Z,956.39
2023-05-14T02:14:06.939Z,956.33
2023-05-14T02:16:33.474Z,956.32
2023-05-14T02:18:59.771Z,956.30
2023-05-14T02:21:26.190Z,956.42
2023-05-14T02:23:52.610Z,956.39
2023-05-14T02:26:19.018Z,956.48
2023-05-14T02:28:45.379Z,956.50
2023-05-14T02:31:11.789Z,956.47
2023-05-14T02:33:38.188Z,956.55
2023-05-14T02:36:04.506Z,956.46
2023-05-14T02:38:30.939Z,956.54
2023-05-14T02:40:57.301Z,956.55
2023-05-14T02:43:23.764Z,956.59
2023-05-14T02:45:50.116Z,956.61
2023-05-14T02:48:16.522Z,956.68
2023-05-14T02:50:42.879Z,956.69
2023-05-14T02:53:09.269Z,956.64
2023-05-14T02:55:35.661Z,956.52
2023-05-14T02:58:02.103Z,956.67
2023-05-14T03:00:28.497Z,956.64
2023-05-14T03:02:54.951Z,956.76
2023-05-14T03:05:21.273Z,956.68
2023-05-14T03:07:47.657Z,956.68
2023-05-14T03:10:14.021Z,956.70
2023-05-14T03:12:40.418Z,956.71
2023-05-14T03:15:06.810Z,956.61
2023-05-14T03:17:33.244Z,956.52
2023-05-14T03:19:59.615Z,956.41
2023-05-14T03:22:26.030Z,956.44
2023-05-14T03:24:52.424Z,956.43
2023-05-14T03:27:18.818Z,956.46
2023-05-14T03:29:45.190Z,956.51
2023-05-14T03:32:11.560Z,956.58
2023-05-14T03:34:37.945Z,956.53
2023-05-14T03:37:04.327Z,956.67
2023-05-14T03:39:30.691Z,956.68
2023-05-14T03:41:57.110Z,956.72
2023-05-14T03:44:23.478Z,956.69
2023-05-14T03:46:49.864Z,956.73
2023-05-14T03:49:16.299Z,956.60
2023-05-14T03:51:42.713Z,956.70
2023-05-14T03:54:09.092Z,956.63
2023-05-14T03:56:35.526Z,956.77
2023-05-14T03:59:01.880Z,956.81
2023-05-14T04:01:28.290Z,956.72
2023-05-14T04:03:54.777Z,956.66
2023-05-14T04:06:21.103Z,956.66
2023-05-14T04:08:47.461Z,956.65
2023-05-14T04:11:13.918Z,956.67
2023-05-14T04:13:40.319Z,956.69
2023-05-14T04:16:06.738Z,956.77
2023-05-14T04:18:33.158Z,956.80
2023-05-14T04:20:59.497Z,956.79
2023-05-14T04:23:28.148Z,956.72
2023-05-14T04:25:54.540Z,956.76
2023-05-14T04:28:20.936Z,956.76
2023-05-14T04:30:47.341Z,956.79
2023-05-14T04:33:13.749Z,956.87
2023-05-14T04:35:40.122Z,956.90
2023-05-14T04:38:06.678Z,956.96
2023-05-14T04:40:33.027Z,957.06
2023-05-14T04:42:59.407Z,957.01
2023-05-14T04:45:25.839Z,956.98
2023-05-14T04:47:52.300Z,957.12
2023-05-14T04:50:18.614Z,957.08
2023-05-14T04:52:45.019Z,957.12
2023-05-14T04:55:11.440Z,957.27
2023-05-14T04:57:37.945Z,957.33
2023-05-14T05:00:04.295Z,957.32
2023-05-14T05:02:30.754Z,957.40
2023-05-14T05:04:57.349Z,957.44
2023-05-14T05:07:23.909Z,957.44
2023-05-14T05:09:50.319Z,957.50
2023-05-14T05:12:16.778Z,957.61
2023-05-14T05:14:43.186Z,957.69
2023-05-14T05:17:09.567Z,957.74
2023-05-14T05:19:43.226Z,957.73
2023-05-14T05:22:04.480Z,957.76
2023-05-14T05:24:30.870Z,957.87
2023-05-14T05:26:57.274Z,957.84
2023-05-14T05:29:23.617Z,957.88
2023-05-14T05:31:50.102Z,957.85
2023-05-14T05:34:16.466Z,957.89
2023-05-14T05:36:42.825Z,958.04
2023-05-14T05:39:09.272Z,957.91
2023-05-14T05:41:35.632Z,957.98
2023-05-14T05:44:02.054Z,957.92
2023-05-14T05:46:28.491Z,957.99
2023-05-14T05:48:54.802Z,958.01
2023-05-14T05:51:21.275Z,957.96
2023-05-14T05:53:47.694Z,958.00
2023-05-14T05:56:14.093Z,958.00
2023-05-14T05:58:40.549Z,958.00
2023-05-14T06:01:07.969Z,957.97
2023-05-14T06:03:34.374Z,957.89
2023-05-14T06:06:00.764Z,957.82
2023-05-14T06:08:27.146Z,957.82
2023-05-14T06:10:53.525Z,957.85
2023-05-14T06:13:19.969Z,957.87
2023-05-14T06:15:46.389Z,957.87
2023-05-14T06:18:12.754Z,957.91
2023-05-14T06:20:39.316Z,957.90
2023-05-14T06:23:05.737Z,957.81
2023-05-14T06:25:32.088Z,957.87
2023-05-14T06:27:58.531Z,957.81
2023-05-14T06:30:25.143Z,957.83
2023-05-14T06:32:51.293Z,957.88
2023-05-14T06:35:17.720Z,957.85
2023-05-14T06:37:44.133Z,958.02
2023-05-14T06:40:10.529Z,958.08
2023-05-14T06:42:36.972Z,957.94
2023-05-14T06:45:03.379Z,957.86
2023-05-14T06:47:29.796Z,957.89
2023-05-14T06:49:56.129Z,957.88
2023-05-14T06:52:22.542Z,957.83
2023-05-14T06:54:48.931Z,957.77
2023-05-14T06:57:15.342Z,957.73
2023-05-14T06:59:41.717Z,957.63
2023-05-14T07:02:08.137Z,957.62
